Main page
METAR-TAF:

METAR-TAF

Airports :

Cairo International Airport

Cairo, Egypt

latitude: 30-08N, longitude: 031-24E, elevation: 64 m

Current weather observation

The report was made 25 minutes ago, at 00:30 UTC
Wind 15 kt from the South/Southwest
Temperature 11°C
Humidity 28%
Pressure 1012 hPa
Visibility 10 km or more
no clouds below 1500 m and no cumulonimbus

METAR: HECA 160030Z 20015KT CAVOK 11/M07 Q1012 NOSIG

Time: 02:55 (00:55 UTC)

Forecast

The report was made 4 hours and 55 minutes ago, at 20:00 UTC
Forecast valid from 15 at 20 UTC to 16 at 24 UTC
Wind 15 kt from the South/Southwest with gusts up to 25 kt
Visibility: 6000 m
Scattered clouds at a height of 2500 ft
Temporary
from 15 at 21 UTC to 16 at 12 UTC
Visibility: 3000 m
sand
Probability 40%
from 16 at 03 UTC to 16 at 09 UTC
Visibility: 1200 m

TAF: HECA 152000Z 1520/1624 21015G25KT 6000 SCT025 TEMPO 1521/1612 3000 SA NSC PROB40 1603/1609 1200

Weather observations and forecasts of more than 4000 airports (METAR and TAF reports).

The available stations are represented by yellow and red dots on the map.

Hover mouse over dot to see the name of the station.

Then click to see weather observations and forecasts.

To change the map : click on the green buttons with a black cross to zoom in, on the green button with a dash to zoom out, or on the green arrows for adjacent maps.


METAR-TAF: